Time;durP1;ratioP1;P1;durP2;ratioP2;P2;SDS_P1;SDS_P2;PMS_P1;PMS_P2;Temp;Humidity;BMP_temperature;BMP_pressure;BME280_temperature;BME280_humidity;BME280_pressure;Samples;Min_cycle;Max_cycle;Signal;HPM_P1;HPM_P2
2023/02/09 00:00:38;;;;;;;7.95;5.68;;;1.20;99.90;;;;;;5060815;28;20032;-66
2023/02/09 00:03:04;;;;;;;12.00;6.38;;;1.20;99.90;;;;;;5068285;28;20059;-66
2023/02/09 00:05:29;;;;;;;10.15;5.97;;;1.20;99.90;;;;;;5071764;28;20421;-66
2023/02/09 00:07:55;;;;;;;12.02;6.65;;;1.20;99.90;;;;;;5071505;28;20392;-66
2023/02/09 00:10:21;;;;;;;12.43;7.00;;;1.20;99.90;;;;;;5071462;28;20505;-66
2023/02/09 00:15:30;;;;;;;11.77;6.82;;;1.20;99.90;;;;;;5071584;28;20036;-67
2023/02/09 00:17:56;;;;;;;11.55;6.63;;;1.20;99.90;;;;;;5071466;28;20478;-67
2023/02/09 00:20:21;;;;;;;9.50;6.20;;;1.20;99.90;;;;;;5071593;28;20122;-67
2023/02/09 00:22:47;;;;;;;9.80;6.50;;;1.10;99.90;;;;;;5071422;28;20048;-67
2023/02/09 00:25:13;;;;;;;10.93;6.65;;;1.10;99.90;;;;;;5072778;28;20040;-66
2023/02/09 00:27:38;;;;;;;11.65;7.10;;;1.10;99.90;;;;;;5074249;28;20382;-67
2023/02/09 00:30:04;;;;;;;21.60;7.18;;;1.10;99.90;;;;;;5075437;28;20040;-67
2023/02/09 00:32:31;;;;;;;9.48;6.30;;;1.10;99.90;;;;;;5075462;28;20068;-67
2023/02/09 00:34:57;;;;;;;12.63;6.93;;;1.10;99.90;;;;;;5075127;28;20491;-66
2023/02/09 00:37:23;;;;;;;13.82;7.15;;;1.00;99.90;;;;;;5075171;28;20039;-67
2023/02/09 00:39:48;;;;;;;11.18;7.32;;;1.10;99.90;;;;;;5058171;28;20037;-66
2023/02/09 00:42:14;;;;;;;10.48;7.03;;;1.00;99.90;;;;;;5055192;28;20037;-66
2023/02/09 00:44:40;;;;;;;13.80;6.72;;;1.00;99.90;;;;;;5069404;28;20043;-67
2023/02/09 00:47:07;;;;;;;11.25;7.43;;;1.00;99.90;;;;;;5062948;28;20052;-67
2023/02/09 00:49:33;;;;;;;10.00;6.82;;;1.00;99.90;;;;;;5075192;28;20044;-67
2023/02/09 00:51:59;;;;;;;9.70;6.95;;;1.00;99.90;;;;;;5074922;28;20044;-67
2023/02/09 00:54:24;;;;;;;10.48;7.18;;;1.00;99.90;;;;;;5074919;28;20032;-67
2023/02/09 00:56:50;;;;;;;11.75;6.50;;;1.00;99.90;;;;;;5074755;28;20459;-67
2023/02/09 00:59:16;;;;;;;13.05;7.22;;;1.00;99.90;;;;;;5065231;28;20041;-67
2023/02/09 01:01:42;;;;;;;16.77;7.32;;;1.00;99.90;;;;;;5069131;28;20059;-67
2023/02/09 01:04:08;;;;;;;12.20;8.30;;;0.90;99.90;;;;;;5075156;28;20056;-66
2023/02/09 01:06:33;;;;;;;10.57;7.40;;;0.90;99.90;;;;;;5074941;28;20094;-66
2023/02/09 01:08:59;;;;;;;10.55;7.68;;;0.90;99.90;;;;;;5074367;28;20127;-67
2023/02/09 01:11:27;;;;;;;12.32;7.63;;;0.90;99.90;;;;;;5074554;28;20055;-67
2023/02/09 01:13:55;;;;;;;13.25;7.78;;;0.90;99.90;;;;;;5074692;28;20445;-67
2023/02/09 01:16:21;;;;;;;11.38;7.55;;;0.80;99.90;;;;;;5074699;28;20044;-67
2023/02/09 01:18:47;;;;;;;10.13;6.65;;;0.80;99.90;;;;;;5074469;28;20041;-67
2023/02/09 01:21:15;;;;;;;12.27;7.18;;;0.80;99.90;;;;;;5074477;28;20028;-67
2023/02/09 01:23:40;;;;;;;11.13;6.93;;;0.80;99.90;;;;;;5074235;28;20083;-67
2023/02/09 01:26:08;;;;;;;11.95;6.90;;;0.80;99.90;;;;;;5074400;28;20071;-67
2023/02/09 01:28:35;;;;;;;11.07;6.90;;;0.80;99.90;;;;;;5074440;28;20110;-67
2023/02/09 01:31:01;;;;;;;13.82;7.18;;;0.80;99.90;;;;;;5074087;28;20033;-67
2023/02/09 01:33:26;;;;;;;16.50;7.60;;;0.80;99.90;;;;;;5074202;28;20096;-67
2023/02/09 01:36:02;;;;;;;14.23;6.85;;;0.80;99.90;;;;;;5060076;28;20041;-66
2023/02/09 01:38:28;;;;;;;12.13;6.68;;;0.80;99.90;;;;;;5047298;28;20037;-67
2023/02/09 01:40:54;;;;;;;9.50;6.57;;;0.80;99.90;;;;;;5074369;28;20509;-67
2023/02/09 01:43:20;;;;;;;15.30;8.27;;;0.80;99.90;;;;;;5056181;28;20461;-67
2023/02/09 01:45:49;;;;;;;12.50;7.10;;;0.80;99.90;;;;;;5074379;28;20098;-67
2023/02/09 01:48:18;;;;;;;13.38;7.63;;;0.80;99.90;;;;;;5072554;28;20048;-67
2023/02/09 01:50:47;;;;;;;15.43;8.48;;;0.80;99.90;;;;;;5065722;28;20045;-67
2023/02/09 01:53:14;;;;;;;10.85;6.85;;;0.70;99.90;;;;;;5068341;28;20124;-67
2023/02/09 01:55:52;;;;;;;13.70;7.25;;;0.70;99.90;;;;;;5072568;28;20127;-67
2023/02/09 01:58:20;;;;;;;13.35;7.63;;;0.70;99.90;;;;;;5073750;28;20040;-67
2023/02/09 02:00:46;;;;;;;10.80;6.78;;;0.70;99.90;;;;;;5073735;28;20037;-67
2023/02/09 02:03:18;;;;;;;13.07;7.45;;;0.70;99.90;;;;;;5073499;28;20122;-67
2023/02/09 02:05:47;;;;;;;14.38;7.30;;;0.70;99.90;;;;;;5073985;28;20110;-67
2023/02/09 02:08:32;;;;;;;12.32;7.28;;;0.70;99.90;;;;;;5073778;28;20045;-67
2023/02/09 02:10:57;;;;;;;14.05;7.38;;;0.70;99.90;;;;;;5047389;28;20110;-67
2023/02/09 02:13:23;;;;;;;10.10;6.85;;;0.70;99.90;;;;;;5072564;28;20032;-67
2023/02/09 02:15:52;;;;;;;10.80;6.18;;;0.70;99.90;;;;;;5059148;28;20037;-67
2023/02/09 02:18:44;;;;;;;13.30;6.90;;;0.80;99.90;;;;;;5073798;28;20082;-67
2023/02/09 02:22:07;;;;;;;11.93;7.65;;;0.70;99.90;;;;;;5047050;28;20124;-67
2023/02/09 02:24:51;;;;;;;10.43;6.72;;;0.80;99.90;;;;;;5051246;28;20033;-67
2023/02/09 02:27:31;;;;;;;11.65;6.80;;;0.80;99.90;;;;;;5050975;28;20041;-67
2023/02/09 02:30:42;;;;;;;12.10;7.10;;;0.80;99.90;;;;;;5034407;28;20384;-67
2023/02/09 02:33:35;;;;;;;13.80;7.65;;;0.80;99.90;;;;;;5051050;28;20380;-67
2023/02/09 02:36:13;;;;;;;13.55;7.28;;;0.80;99.90;;;;;;5048603;28;20044;-67
2023/02/09 02:38:54;;;;;;;10.27;6.78;;;0.70;99.90;;;;;;5022922;28;20037;-67
2023/02/09 02:41:27;;;;;;;11.25;6.57;;;0.80;99.90;;;;;;5030754;28;20061;-67
2023/02/09 02:44:06;;;;;;;12.52;7.18;;;0.70;99.90;;;;;;5030975;28;20064;-68
2023/02/09 02:46:41;;;;;;;11.90;7.28;;;0.70;99.90;;;;;;5030857;28;20387;-67
2023/02/09 02:49:14;;;;;;;10.60;6.78;;;0.70;99.90;;;;;;5030577;28;20053;-67
2023/02/09 02:51:43;;;;;;;10.48;6.85;;;0.70;99.90;;;;;;5030576;28;20049;-67
2023/02/09 02:54:16;;;;;;;12.80;7.63;;;0.70;99.90;;;;;;5030826;28;20060;-67
2023/02/09 02:56:48;;;;;;;17.23;7.35;;;0.70;99.90;;;;;;5062462;28;20044;-67
2023/02/09 02:59:18;;;;;;;9.25;6.78;;;0.60;99.90;;;;;;5051494;28;20047;-67
2023/02/09 03:02:10;;;;;;;17.77;7.45;;;0.70;99.90;;;;;;5052521;28;20060;-67
2023/02/09 03:04:37;;;;;;;11.48;7.38;;;0.60;99.90;;;;;;5049956;28;20078;-67
2023/02/09 03:07:09;;;;;;;11.73;7.10;;;0.50;99.90;;;;;;5052300;28;20118;-67
2023/02/09 03:09:35;;;;;;;13.75;7.97;;;0.50;99.90;;;;;;5052549;28;20040;-67
2023/02/09 03:12:21;;;;;;;12.23;7.30;;;0.50;99.90;;;;;;5050959;28;20041;-67
2023/02/09 03:15:07;;;;;;;13.75;6.95;;;0.50;99.90;;;;;;5051938;28;20048;-68
2023/02/09 03:17:58;;;;;;;10.80;7.03;;;0.50;99.90;;;;;;5052240;28;20040;-67
2023/02/09 03:20:35;;;;;;;16.67;8.15;;;0.40;99.90;;;;;;5052043;28;20454;-67
2023/02/09 03:23:03;;;;;;;14.02;7.93;;;0.40;99.90;;;;;;5069703;28;20028;-67
2023/02/09 03:25:33;;;;;;;16.15;8.50;;;0.30;99.90;;;;;;5088077;28;20386;-67
2023/02/09 03:28:07;;;;;;;13.43;7.50;;;0.30;99.90;;;;;;5072099;28;20044;-67
2023/02/09 03:30:33;;;;;;;12.43;7.80;;;0.30;99.90;;;;;;5072015;28;20037;-67
2023/02/09 03:33:01;;;;;;;14.48;7.72;;;0.20;99.90;;;;;;5071851;28;20042;-67
2023/02/09 03:35:34;;;;;;;12.43;7.80;;;0.30;99.90;;;;;;5071877;28;20036;-67
2023/02/09 03:38:01;;;;;;;12.55;7.55;;;0.30;99.90;;;;;;5069937;28;20547;-67
2023/02/09 03:40:26;;;;;;;11.75;7.40;;;0.30;99.90;;;;;;5051964;28;20033;-67
2023/02/09 03:42:52;;;;;;;13.10;7.85;;;0.30;99.90;;;;;;5051920;28;20386;-67
2023/02/09 03:45:18;;;;;;;18.05;8.13;;;0.30;99.90;;;;;;5054693;28;20032;-67
2023/02/09 03:47:43;;;;;;;13.38;7.60;;;0.30;99.90;;;;;;5071771;28;20044;-68
2023/02/09 03:50:09;;;;;;;17.17;8.25;;;0.20;99.90;;;;;;5070523;28;20052;-67
2023/02/09 03:52:35;;;;;;;14.75;8.18;;;0.20;99.90;;;;;;5071627;28;20028;-67
2023/02/09 03:55:02;;;;;;;13.30;7.45;;;0.20;99.90;;;;;;5071783;28;20383;-67
2023/02/09 03:57:28;;;;;;;12.18;7.20;;;0.20;99.90;;;;;;5071645;28;20171;-67
2023/02/09 03:59:54;;;;;;;13.60;7.53;;;0.30;99.90;;;;;;5070611;28;20037;-67
2023/02/09 04:02:19;;;;;;;14.40;7.72;;;0.20;99.90;;;;;;5071181;28;20416;-67
2023/02/09 04:04:45;;;;;;;14.10;7.60;;;0.30;99.90;;;;;;5071790;28;20040;-67
2023/02/09 04:07:11;;;;;;;14.13;7.15;;;0.20;99.90;;;;;;5070258;28;20170;-67
2023/02/09 04:09:36;;;;;;;13.63;7.80;;;0.30;99.90;;;;;;5071874;28;20036;-67
2023/02/09 04:12:03;;;;;;;9.98;6.75;;;0.20;99.90;;;;;;5071335;28;20119;-67
2023/02/09 04:14:28;;;;;;;12.75;7.53;;;0.30;99.90;;;;;;5071275;28;20028;-67
2023/02/09 04:16:54;;;;;;;13.82;7.68;;;0.30;99.90;;;;;;5071385;28;20036;-67
2023/02/09 04:19:19;;;;;;;12.23;6.85;;;0.30;99.90;;;;;;5071548;28;20455;-67
2023/02/09 04:21:45;;;;;;;12.40;6.97;;;0.30;99.90;;;;;;5071485;28;20028;-67
2023/02/09 04:24:11;;;;;;;13.75;7.28;;;0.30;99.90;;;;;;5070039;28;20028;-67
2023/02/09 04:26:36;;;;;;;12.70;6.68;;;0.30;99.90;;;;;;5071431;28;20047;-67
2023/02/09 04:29:03;;;;;;;14.82;7.80;;;0.40;99.90;;;;;;5071230;28;20437;-67
2023/02/09 04:31:29;;;;;;;13.20;7.15;;;0.30;99.90;;;;;;5071349;28;20036;-68
2023/02/09 04:33:55;;;;;;;10.90;7.20;;;0.30;99.90;;;;;;5071439;28;20044;-67
2023/02/09 04:36:22;;;;;;;13.00;7.72;;;0.30;99.90;;;;;;5070922;28;20072;-67
2023/02/09 04:38:48;;;;;;;11.48;7.22;;;0.30;99.90;;;;;;5071207;28;20139;-67
2023/02/09 04:41:13;;;;;;;11.43;7.25;;;0.30;99.90;;;;;;5071152;28;20032;-67
2023/02/09 04:43:39;;;;;;;13.82;6.40;;;0.30;99.90;;;;;;5070044;28;20041;-68
2023/02/09 04:46:05;;;;;;;14.00;6.88;;;0.30;99.90;;;;;;5071122;28;20036;-67
2023/02/09 04:48:30;;;;;;;12.50;7.47;;;0.20;99.90;;;;;;5070236;28;20048;-67
2023/02/09 04:50:56;;;;;;;9.98;7.22;;;0.30;99.90;;;;;;5070139;28;20045;-67
2023/02/09 04:53:23;;;;;;;13.90;7.00;;;0.20;99.90;;;;;;5043394;28;20103;-67
2023/02/09 04:55:50;;;;;;;14.23;6.90;;;0.30;99.90;;;;;;5071228;28;20048;-67
2023/02/09 05:01:03;;;;;;;12.27;7.50;;;0.20;99.90;;;;;;5070912;28;20552;-67
2023/02/09 05:03:29;;;;;;;13.75;7.63;;;0.10;99.90;;;;;;5070694;28;20054;-67
2023/02/09 05:06:00;;;;;;;13.45;6.63;;;0.10;99.90;;;;;;5071005;28;20053;-67
2023/02/09 05:08:26;;;;;;;14.65;6.35;;;0.20;99.90;;;;;;5071028;28;20040;-67
2023/02/09 05:10:52;;;;;;;12.25;7.05;;;0.20;99.90;;;;;;5071993;28;20044;-67
2023/02/09 05:13:19;;;;;;;9.82;6.57;;;0.20;99.90;;;;;;5074796;28;20379;-67
2023/02/09 05:15:45;;;;;;;10.00;5.97;;;0.20;99.90;;;;;;5074893;28;20045;-67
2023/02/09 05:18:12;;;;;;;11.38;6.43;;;0.40;99.90;;;;;;5074451;28;20490;-68
2023/02/09 05:20:38;;;;;;;14.90;6.30;;;0.30;99.90;;;;;;5074437;28;20036;-68
2023/02/09 05:23:04;;;;;;;12.73;6.70;;;0.30;99.90;;;;;;5074268;28;20527;-67
2023/02/09 05:25:30;;;;;;;12.52;5.85;;;0.30;99.90;;;;;;5060386;28;20071;-67
2023/02/09 05:27:55;;;;;;;14.90;7.82;;;0.30;99.90;;;;;;5074496;28;20051;-68
2023/02/09 05:30:21;;;;;;;10.75;6.57;;;0.20;99.90;;;;;;5074363;28;20036;-67
2023/02/09 05:32:47;;;;;;;9.18;6.00;;;0.30;99.90;;;;;;5074311;28;20040;-67
2023/02/09 05:35:12;;;;;;;10.07;6.22;;;0.20;99.90;;;;;;5074059;28;20047;-67
2023/02/09 05:37:38;;;;;;;15.20;6.93;;;0.20;99.90;;;;;;5074111;28;20043;-67
2023/02/09 05:40:04;;;;;;;9.23;6.47;;;0.20;99.90;;;;;;5060218;28;20045;-67
2023/02/09 05:42:30;;;;;;;11.63;6.70;;;0.20;99.90;;;;;;5059908;28;20035;-67
2023/02/09 05:44:56;;;;;;;12.85;6.38;;;0.20;99.90;;;;;;5066259;28;20032;-67
2023/02/09 05:47:23;;;;;;;12.07;6.30;;;0.20;99.90;;;;;;5074103;28;20429;-67
2023/02/09 05:49:50;;;;;;;12.80;6.65;;;0.20;99.90;;;;;;5074032;28;20090;-67
2023/02/09 05:52:17;;;;;;;11.60;6.55;;;0.20;99.90;;;;;;5073666;28;20555;-67
2023/02/09 05:54:42;;;;;;;10.15;6.70;;;0.20;99.90;;;;;;5073915;28;20041;-67
2023/02/09 05:57:09;;;;;;;11.98;6.53;;;0.10;99.90;;;;;;5074068;28;20082;-68
2023/02/09 05:59:34;;;;;;;14.35;7.65;;;0.10;99.90;;;;;;5073798;28;20119;-68
2023/02/09 06:02:00;;;;;;;13.45;7.68;;;0.10;99.90;;;;;;5072657;28;20132;-67
2023/02/09 06:04:27;;;;;;;14.10;6.53;;;0.10;99.90;;;;;;5072505;28;20044;-68
2023/02/09 06:06:53;;;;;;;10.30;6.38;;;0.10;99.90;;;;;;5072533;28;20048;-67
2023/02/09 06:09:19;;;;;;;9.80;6.47;;;0.10;99.90;;;;;;5073905;28;20461;-68
2023/02/09 06:11:45;;;;;;;13.13;6.95;;;0.10;99.90;;;;;;5073982;28;20032;-67
2023/02/09 06:14:11;;;;;;;11.15;6.57;;;0.00;99.90;;;;;;5073644;28;20032;-67
2023/02/09 06:16:37;;;;;;;10.68;6.85;;;0.00;99.90;;;;;;5073113;28;20041;-68
2023/02/09 06:19:03;;;;;;;9.68;6.50;;;0.00;99.90;;;;;;5073354;28;20036;-68
2023/02/09 06:21:28;;;;;;;13.00;7.20;;;0.00;99.90;;;;;;5073313;28;20563;-68
2023/02/09 06:23:54;;;;;;;12.43;6.65;;;0.00;99.90;;;;;;5071440;28;20044;-68
2023/02/09 06:26:20;;;;;;;11.13;6.22;;;0.00;99.90;;;;;;5061653;28;20064;-68
2023/02/09 06:28:46;;;;;;;12.43;6.60;;;0.00;99.90;;;;;;5070998;28;20075;-68
2023/02/09 06:31:12;;;;;;;13.82;7.63;;;0.00;99.90;;;;;;5073091;28;20072;-68
2023/02/09 06:33:38;;;;;;;12.05;7.03;;;0.00;99.90;;;;;;5073019;28;20044;-68
2023/02/09 06:36:05;;;;;;;11.15;6.93;;;0.00;99.90;;;;;;5072882;28;20394;-68
2023/02/09 06:38:35;;;;;;;13.63;7.05;;;-0.10;99.90;;;;;;5071631;28;20051;-68
2023/02/09 06:41:01;;;;;;;12.75;7.15;;;0.00;99.90;;;;;;5069295;28;20538;-68
2023/02/09 06:43:27;;;;;;;11.45;6.53;;;0.00;99.90;;;;;;5066626;28;20166;-67
2023/02/09 06:45:52;;;;;;;9.75;6.60;;;0.00;99.90;;;;;;5055311;28;20037;-68
2023/02/09 06:48:18;;;;;;;11.70;6.88;;;0.00;99.90;;;;;;5053146;28;20063;-68
2023/02/09 06:50:44;;;;;;;12.10;7.43;;;0.00;99.90;;;;;;5068341;28;20217;-68
2023/02/09 06:53:10;;;;;;;11.98;7.07;;;0.00;99.90;;;;;;5071471;28;20051;-67
2023/02/09 06:55:35;;;;;;;10.52;6.80;;;0.00;99.90;;;;;;5072553;28;20040;-68
2023/02/09 06:58:02;;;;;;;14.02;7.53;;;0.10;99.90;;;;;;5072600;28;20032;-67
2023/02/09 07:00:27;;;;;;;12.60;7.13;;;0.00;99.90;;;;;;5072574;28;20086;-67
2023/02/09 07:02:53;;;;;;;13.13;7.57;;;0.10;99.90;;;;;;5072306;28;20056;-68
2023/02/09 07:05:19;;;;;;;12.38;7.25;;;0.00;99.90;;;;;;5072619;28;20074;-68
2023/02/09 07:07:45;;;;;;;14.70;6.93;;;0.00;99.90;;;;;;5068779;28;20037;-68
2023/02/09 07:10:13;;;;;;;13.00;7.10;;;0.00;99.90;;;;;;5072311;28;20029;-68
2023/02/09 07:12:39;;;;;;;11.13;7.15;;;0.00;99.90;;;;;;5072451;28;20177;-67
2023/02/09 07:15:06;;;;;;;12.55;7.38;;;0.00;99.90;;;;;;5068197;28;20058;-68
2023/02/09 07:17:32;;;;;;;11.07;7.18;;;0.00;99.90;;;;;;5071064;28;20075;-68
2023/02/09 07:19:58;;;;;;;12.68;7.80;;;0.00;99.90;;;;;;5072208;28;20068;-67
2023/02/09 07:22:26;;;;;;;15.93;7.20;;;0.00;99.90;;;;;;5072193;28;20379;-68
2023/02/09 07:24:52;;;;;;;15.00;7.22;;;0.00;99.90;;;;;;5072327;28;20040;-68
2023/02/09 07:27:19;;;;;;;13.80;7.10;;;0.00;99.90;;;;;;5072001;28;20036;-68
2023/02/09 07:29:44;;;;;;;14.20;7.72;;;0.00;99.90;;;;;;5061715;28;20087;-68
2023/02/09 07:32:11;;;;;;;9.27;6.80;;;0.00;99.90;;;;;;5068288;28;20040;-68
2023/02/09 07:34:36;;;;;;;14.65;7.50;;;0.10;99.90;;;;;;5071810;28;20025;-67
2023/02/09 07:37:03;;;;;;;14.05;7.60;;;0.00;99.90;;;;;;5071644;28;20064;-66
2023/02/09 07:39:29;;;;;;;13.73;7.40;;;0.10;99.90;;;;;;5071999;28;20058;-65
2023/02/09 07:41:54;;;;;;;17.88;7.28;;;0.10;99.90;;;;;;5071973;28;20509;-65
2023/02/09 07:44:20;;;;;;;11.60;7.03;;;0.20;99.90;;;;;;5059778;28;20033;-65
2023/02/09 07:46:46;;;;;;;10.98;6.95;;;0.20;99.90;;;;;;5048898;28;20045;-66
2023/02/09 07:49:12;;;;;;;12.02;7.45;;;0.30;99.90;;;;;;5067965;28;20386;-66
2023/02/09 07:51:38;;;;;;;12.25;8.05;;;0.30;99.90;;;;;;5071561;28;20036;-66
2023/02/09 07:54:04;;;;;;;15.02;7.43;;;0.30;99.90;;;;;;5071549;28;20041;-66
2023/02/09 07:56:30;;;;;;;12.90;7.07;;;0.30;99.90;;;;;;5071474;28;20072;-66
2023/02/09 07:58:56;;;;;;;15.05;8.73;;;0.40;99.90;;;;;;5071528;28;20133;-66
2023/02/09 08:01:22;;;;;;;15.75;7.38;;;0.40;99.90;;;;;;5071562;28;20032;-66
2023/02/09 08:03:49;;;;;;;12.73;8.73;;;0.40;99.90;;;;;;5071125;28;20496;-66
2023/02/09 08:06:40;;;;;;;15.05;7.85;;;0.40;99.90;;;;;;5070560;28;20064;-66
2023/02/09 08:09:07;;;;;;;9.98;7.03;;;0.40;99.90;;;;;;5071714;28;20076;-65
2023/02/09 08:11:32;;;;;;;15.05;7.68;;;0.50;99.90;;;;;;5071473;28;20487;-65
2023/02/09 08:14:02;;;;;;;16.23;7.88;;;0.50;99.90;;;;;;5069182;28;20037;-65
2023/02/09 08:16:30;;;;;;;11.73;7.50;;;0.60;99.90;;;;;;5071557;28;20055;-65
2023/02/09 08:19:07;;;;;;;13.90;7.70;;;0.60;99.90;;;;;;5071389;28;20107;-65
2023/02/09 08:21:37;;;;;;;13.60;7.75;;;0.70;99.90;;;;;;5071550;28;20039;-65
2023/02/09 08:24:04;;;;;;;12.07;7.70;;;0.80;99.90;;;;;;5071212;28;20474;-65
2023/02/09 08:26:30;;;;;;;13.05;7.80;;;0.80;99.90;;;;;;5071494;28;20119;-65
2023/02/09 08:28:56;;;;;;;12.50;8.18;;;0.80;99.90;;;;;;5071322;28;20116;-66
2023/02/09 08:31:21;;;;;;;13.48;7.60;;;0.90;99.90;;;;;;5071499;28;20036;-66
2023/02/09 08:33:49;;;;;;;11.68;8.10;;;1.00;99.90;;;;;;5071247;28;20040;-66
2023/02/09 08:36:16;;;;;;;15.40;7.80;;;1.00;99.90;;;;;;5071289;28;20054;-65
2023/02/09 08:38:43;;;;;;;12.15;7.22;;;1.00;99.90;;;;;;5071261;28;20041;-65
2023/02/09 08:41:11;;;;;;;13.98;7.93;;;1.10;99.90;;;;;;5071043;28;20032;-66
2023/02/09 08:43:37;;;;;;;14.90;7.97;;;1.10;99.90;;;;;;5071205;28;20050;-66
2023/02/09 08:46:06;;;;;;;12.05;8.00;;;1.20;99.90;;;;;;5072390;28;20032;-65
2023/02/09 08:48:33;;;;;;;12.23;7.78;;;1.20;99.90;;;;;;5075388;28;20120;-65
2023/02/09 08:50:59;;;;;;;16.35;8.38;;;1.30;99.90;;;;;;5074839;28;20036;-65
2023/02/09 08:53:25;;;;;;;15.43;8.18;;;1.30;99.90;;;;;;5074934;28;20470;-66
2023/02/09 08:55:51;;;;;;;14.23;8.73;;;1.40;99.90;;;;;;5071359;28;20445;-65
2023/02/09 08:58:17;;;;;;;10.55;7.43;;;1.50;99.90;;;;;;5074878;28;20050;-66
2023/02/09 09:00:43;;;;;;;14.35;8.20;;;1.50;99.90;;;;;;5073935;28;20058;-65
2023/02/09 09:03:09;;;;;;;11.93;7.65;;;1.50;99.90;;;;;;5061882;28;20461;-66
2023/02/09 09:05:35;;;;;;;13.13;8.13;;;1.60;99.90;;;;;;5074796;28;20123;-65
2023/02/09 09:08:02;;;;;;;14.70;8.00;;;1.70;99.90;;;;;;5074695;28;20048;-66
2023/02/09 09:10:28;;;;;;;12.07;7.93;;;1.70;99.90;;;;;;5074502;28;20040;-66
2023/02/09 09:12:54;;;;;;;14.88;9.18;;;1.70;99.90;;;;;;5071429;28;20495;-65
2023/02/09 09:15:19;;;;;;;13.05;8.07;;;1.80;99.90;;;;;;5063999;28;20040;-66
2023/02/09 09:17:45;;;;;;;14.02;8.60;;;1.80;99.90;;;;;;5074502;28;20375;-66
2023/02/09 09:20:12;;;;;;;12.25;8.43;;;1.90;99.90;;;;;;5074531;28;20082;-65
2023/02/09 09:22:37;;;;;;;13.07;8.40;;;1.90;99.90;;;;;;5074471;28;20041;-65
2023/02/09 09:25:03;;;;;;;18.15;9.32;;;2.00;99.90;;;;;;5060136;28;20107;-65
2023/02/09 09:27:31;;;;;;;12.05;8.25;;;2.10;99.90;;;;;;5072736;28;20045;-66
2023/02/09 09:29:57;;;;;;;16.50;8.95;;;2.20;99.90;;;;;;5074106;28;20546;-66
2023/02/09 09:32:23;;;;;;;14.98;8.93;;;2.30;99.90;;;;;;5064750;28;20033;-65
2023/02/09 09:34:54;;;;;;;14.43;9.02;;;2.40;99.90;;;;;;5069966;28;20086;-65
2023/02/09 09:37:22;;;;;;;14.55;8.65;;;2.40;99.90;;;;;;5074099;28;20043;-65
2023/02/09 09:39:48;;;;;;;16.08;8.88;;;2.50;99.90;;;;;;5074240;28;20043;-65
2023/02/09 09:42:37;;;;;;;15.20;9.07;;;2.70;99.90;;;;;;5074255;28;20043;-65
2023/02/09 09:45:06;;;;;;;14.45;8.98;;;2.60;99.90;;;;;;5072622;28;20049;-65
2023/02/09 09:47:36;;;;;;;17.13;9.88;;;2.70;99.90;;;;;;5074302;28;20532;-65
2023/02/09 09:50:13;;;;;;;14.75;9.65;;;2.80;99.90;;;;;;5073777;28;20040;-65
2023/02/09 09:52:42;;;;;;;15.55;9.60;;;2.80;99.90;;;;;;5074012;28;20032;-66
2023/02/09 09:55:20;;;;;;;13.73;8.98;;;2.90;99.90;;;;;;5073864;28;20116;-66
2023/02/09 09:57:45;;;;;;;17.27;9.48;;;3.00;99.90;;;;;;5059551;28;20048;-66
2023/02/09 10:00:23;;;;;;;15.98;9.48;;;3.00;99.90;;;;;;5072863;28;20391;-66
2023/02/09 10:02:48;;;;;;;16.98;9.77;;;3.10;99.90;;;;;;5073742;28;20395;-65
2023/02/09 10:05:18;;;;;;;14.13;9.20;;;3.10;99.90;;;;;;5073667;28;20044;-65
2023/02/09 10:07:52;;;;;;;15.18;9.88;;;3.20;99.90;;;;;;5073796;28;20047;-65
2023/02/09 10:10:48;;;;;;;15.45;10.10;;;3.20;99.90;;;;;;5073476;28;20044;-66
2023/02/09 10:13:22;;;;;;;19.88;10.10;;;3.30;99.90;;;;;;5031227;28;20061;-66
2023/02/09 10:15:50;;;;;;;18.08;10.10;;;3.30;99.90;;;;;;5031424;28;20042;-65
2023/02/09 10:18:17;;;;;;;15.93;10.18;;;3.40;99.90;;;;;;5031505;28;20045;-65
2023/02/09 10:20:49;;;;;;;16.00;9.80;;;3.30;99.90;;;;;;5031346;28;20033;-65
2023/02/09 10:23:26;;;;;;;15.25;10.45;;;3.40;99.90;;;;;;5014746;28;20049;-65
2023/02/09 10:26:17;;;;;;;16.83;10.95;;;3.40;99.90;;;;;;5026986;28;20076;-65
2023/02/09 10:28:49;;;;;;;21.90;10.18;;;3.40;99.90;;;;;;4953211;29;20055;-66
2023/02/09 10:31:24;;;;;;;18.30;10.38;;;3.40;99.90;;;;;;4952814;29;20043;-65
2023/02/09 10:34:13;;;;;;;17.73;10.18;;;3.40;99.90;;;;;;4953040;29;20158;-65
2023/02/09 10:37:17;;;;;;;18.48;10.32;;;3.50;99.90;;;;;;4952575;29;20043;-65
2023/02/09 10:39:43;;;;;;;15.68;10.18;;;3.50;99.90;;;;;;4952633;29;20039;-65
2023/02/09 10:42:21;;;;;;;17.65;10.30;;;3.60;99.90;;;;;;4952717;29;20050;-66
2023/02/09 10:44:53;;;;;;;14.27;10.98;;;3.60;99.90;;;;;;4953005;29;20047;-65
2023/02/09 10:47:18;;;;;;;19.20;11.02;;;3.70;99.90;;;;;;4952451;29;20087;-65
2023/02/09 10:49:59;;;;;;;18.58;11.20;;;3.70;99.90;;;;;;4968446;28;20092;-65
2023/02/09 10:52:30;;;;;;;21.45;11.18;;;3.80;99.90;;;;;;5007427;28;20472;-65
2023/02/09 10:55:00;;;;;;;23.10;12.07;;;3.80;99.90;;;;;;5010885;28;20099;-65
2023/02/09 10:57:36;;;;;;;19.33;10.73;;;3.80;99.90;;;;;;5010788;28;20042;-65
2023/02/09 11:00:27;;;;;;;17.38;11.57;;;3.80;99.90;;;;;;5010710;28;20108;-65
2023/02/09 11:03:00;;;;;;;16.80;10.45;;;3.80;99.90;;;;;;4994254;28;20058;-65
2023/02/09 11:05:34;;;;;;;18.95;11.05;;;3.90;99.90;;;;;;5028676;28;20045;-65
2023/02/09 11:08:20;;;;;;;18.50;11.45;;;3.90;99.90;;;;;;5065928;28;20534;-66
2023/02/09 11:11:19;;;;;;;19.48;11.30;;;3.90;99.90;;;;;;5048973;28;20119;-65
2023/02/09 11:13:45;;;;;;;22.95;12.00;;;3.90;99.90;;;;;;5072222;28;20041;-65
2023/02/09 11:16:32;;;;;;;17.63;11.80;;;3.90;99.90;;;;;;5072352;28;20044;-65
2023/02/09 11:19:24;;;;;;;16.70;11.02;;;4.00;99.90;;;;;;5072072;28;20041;-65
2023/02/09 11:21:54;;;;;;;19.50;11.18;;;4.00;99.90;;;;;;5072005;28;20123;-65
2023/02/09 11:24:24;;;;;;;18.67;11.48;;;4.00;99.90;;;;;;5071029;28;20048;-65
2023/02/09 11:27:00;;;;;;;22.50;13.52;;;4.00;99.90;;;;;;5072131;28;20080;-65
2023/02/09 11:29:47;;;;;;;22.95;12.70;;;4.00;99.90;;;;;;5072067;28;20608;-65
2023/02/09 11:32:22;;;;;;;18.85;11.82;;;4.10;99.90;;;;;;5071820;28;20492;-65
2023/02/09 11:35:03;;;;;;;21.25;12.10;;;4.10;99.90;;;;;;5072230;28;20098;-65
2023/02/09 11:37:36;;;;;;;19.13;12.98;;;4.10;99.90;;;;;;5071948;28;20444;-65
2023/02/09 11:40:26;;;;;;;17.98;12.73;;;4.20;99.90;;;;;;5071801;28;20048;-65
2023/02/09 11:43:05;;;;;;;26.65;13.05;;;4.40;99.90;;;;;;5072416;28;20495;-65
2023/02/09 11:45:52;;;;;;;22.75;13.18;;;4.40;99.90;;;;;;5071996;28;20111;-65
2023/02/09 11:48:34;;;;;;;19.88;12.80;;;4.50;99.90;;;;;;5071550;28;20113;-65
2023/02/09 11:51:16;;;;;;;19.17;12.73;;;4.60;99.90;;;;;;5071767;28;20102;-65
2023/02/09 11:54:11;;;;;;;20.88;12.48;;;4.70;99.90;;;;;;5072019;28;20777;-65
2023/02/09 11:56:49;;;;;;;19.05;12.73;;;4.70;99.90;;;;;;5029351;28;20129;-65
2023/02/09 11:59:25;;;;;;;19.65;12.07;;;4.70;99.90;;;;;;5029647;28;20081;-65
2023/02/09 12:02:12;;;;;;;19.27;12.38;;;4.80;99.90;;;;;;5029258;28;20077;-65
2023/02/09 12:04:49;;;;;;;21.60;13.45;;;4.90;99.90;;;;;;5029616;28;20046;-65
2023/02/09 12:07:29;;;;;;;19.05;12.85;;;4.90;99.90;;;;;;5016897;28;20124;-65
2023/02/09 12:10:19;;;;;;;19.45;12.52;;;4.90;99.90;;;;;;5028165;28;20124;-65
2023/02/09 12:13:00;;;;;;;21.08;13.60;;;4.90;99.90;;;;;;5020203;28;20438;-65
2023/02/09 12:15:40;;;;;;;24.83;13.05;;;5.00;99.90;;;;;;5029194;28;20053;-65
2023/02/09 12:18:18;;;;;;;21.40;13.60;;;5.00;99.90;;;;;;5023963;28;20131;-64
2023/02/09 12:20:54;;;;;;;20.08;13.25;;;5.10;99.90;;;;;;5028689;28;20499;-65
2023/02/09 12:23:34;;;;;;;25.73;14.68;;;5.10;99.90;;;;;;5029322;28;20038;-65
2023/02/09 12:26:21;;;;;;;24.88;14.45;;;5.20;99.90;;;;;;5017121;28;20051;-64
2023/02/09 12:29:19;;;;;;;24.85;14.05;;;5.20;99.90;;;;;;5026624;28;20079;-65
2023/02/09 12:32:02;;;;;;;21.23;13.27;;;5.10;99.90;;;;;;5023440;28;20056;-64
2023/02/09 12:34:50;;;;;;;19.58;13.77;;;5.20;99.90;;;;;;5044795;28;20139;-65
2023/02/09 12:37:22;;;;;;;24.50;14.05;;;5.20;99.90;;;;;;5071075;28;20123;-64
2023/02/09 12:40:23;;;;;;;25.60;12.90;;;5.20;99.90;;;;;;5071235;28;20072;-64
2023/02/09 12:42:51;;;;;;;25.17;14.35;;;5.10;99.90;;;;;;5028894;28;20107;-64
2023/02/09 12:45:32;;;;;;;18.67;13.43;;;5.00;99.90;;;;;;5000771;28;20050;-65
2023/02/09 12:48:18;;;;;;;22.42;14.65;;;5.00;99.90;;;;;;5009873;28;20044;-65
2023/02/09 12:50:53;;;;;;;21.48;14.02;;;4.90;99.90;;;;;;5008749;28;20488;-65
2023/02/09 12:53:42;;;;;;;24.63;14.52;;;4.90;99.90;;;;;;5028713;28;20030;-65
2023/02/09 12:56:08;;;;;;;21.95;14.27;;;5.00;99.90;;;;;;5012074;28;20093;-64
2023/02/09 12:58:35;;;;;;;21.27;14.50;;;4.80;99.90;;;;;;5028855;28;20498;-65
2023/02/09 13:01:01;;;;;;;25.95;15.85;;;4.80;99.90;;;;;;5028996;28;20079;-65
2023/02/09 13:03:27;;;;;;;23.10;15.07;;;4.80;99.90;;;;;;5028634;28;20041;-65
2023/02/09 13:05:57;;;;;;;22.75;15.50;;;4.80;99.90;;;;;;5002503;28;20058;-65
2023/02/09 13:08:31;;;;;;;24.73;15.02;;;4.80;99.90;;;;;;5025549;28;20095;-65